createdAt,value
2023-05-04T00:03:40.481Z,99168.84
2023-05-04T00:08:42.525Z,99162.03
2023-05-04T00:13:44.555Z,99161.78
2023-05-04T00:18:46.441Z,99164.13
2023-05-04T00:23:51.769Z,99148.00
2023-05-04T00:28:53.708Z,99148.97
2023-05-04T00:33:55.570Z,99149.13
2023-05-04T00:38:57.402Z,99143.09
2023-05-04T00:43:59.914Z,99133.97
2023-05-04T00:49:02.321Z,99134.09
2023-05-04T00:54:05.161Z,99137.66
2023-05-04T00:59:07.107Z,99132.22
2023-05-04T01:04:09.825Z,99131.00
2023-05-04T01:09:37.400Z,99131.56
2023-05-04T01:14:40.048Z,99130.22
2023-05-04T01:19:41.870Z,99125.31
2023-05-04T01:24:43.919Z,99118.78
2023-05-04T01:30:02.905Z,99117.00
2023-05-04T01:35:06.373Z,99130.66
2023-05-04T01:40:09.514Z,99135.56
2023-05-04T01:52:01.604Z,99124.78
2023-05-04T01:57:03.613Z,99120.84
2023-05-04T02:02:05.680Z,99120.56
2023-05-04T02:07:08.016Z,99117.56
2023-05-04T02:12:10.011Z,99120.44
2023-05-04T02:17:12.082Z,99119.63
2023-05-04T02:22:14.067Z,99122.47
2023-05-04T02:27:16.228Z,99121.38
2023-05-04T02:32:18.155Z,99121.66
2023-05-04T02:37:20.116Z,99130.66
2023-05-04T02:42:22.154Z,99133.38
2023-05-04T02:47:24.120Z,99129.56
2023-05-04T02:52:26.160Z,99124.91
2023-05-04T02:57:28.106Z,99127.78
2023-05-04T03:03:12.795Z,99129.81
2023-05-04T03:08:19.807Z,99120.66
2023-05-04T03:13:27.686Z,99120.13
2023-05-04T03:18:36.610Z,99120.25
2023-05-04T03:24:07.610Z,99122.03
2023-05-04T03:29:10.614Z,99124.88
2023-05-04T03:34:15.524Z,99125.84
2023-05-04T03:39:18.012Z,99125.16
2023-05-04T03:44:20.619Z,99113.28
2023-05-04T03:49:22.572Z,99119.41
2023-05-04T03:54:24.466Z,99116.28
2023-05-04T03:59:26.353Z,99125.69
2023-05-04T04:04:28.734Z,99122.13
2023-05-04T04:09:32.351Z,99119.41
2023-05-04T04:14:34.253Z,99110.28
2023-05-04T04:19:36.064Z,99114.00
2023-05-04T04:24:38.257Z,99108.00
2023-05-04T04:29:40.139Z,99110.47
2023-05-04T04:34:41.893Z,99110.34
2023-05-04T04:39:43.786Z,99111.16
2023-05-04T04:44:45.798Z,99117.03
2023-05-04T04:49:47.886Z,99111.81
2023-05-04T04:54:49.800Z,99112.63
2023-05-04T04:59:51.596Z,99118.91
2023-05-04T05:04:54.668Z,99115.50
2023-05-04T05:09:56.834Z,99115.09
2023-05-04T05:14:58.666Z,99124.75
2023-05-04T05:20:00.532Z,99119.13
2023-05-04T05:25:03.166Z,99111.31
2023-05-04T05:30:06.387Z,99112.09
2023-05-04T05:35:09.618Z,99114.41
2023-05-04T05:40:12.414Z,99104.56
2023-05-04T05:45:14.246Z,99107.41
2023-05-04T05:50:16.068Z,99117.59
2023-05-04T05:55:17.936Z,99111.25
2023-05-04T06:00:20.091Z,99116.13
2023-05-04T06:05:21.965Z,99116.72
2023-05-04T06:10:23.915Z,99112.69
2023-05-04T06:15:26.046Z,99103.03
2023-05-04T06:20:29.241Z,99099.69
2023-05-04T06:25:31.398Z,99101.88
2023-05-04T06:30:33.592Z,99091.50
2023-05-04T06:35:35.727Z,99089.75
2023-05-04T06:40:37.797Z,99089.19
2023-05-04T06:45:40.021Z,99091.88
2023-05-04T06:50:42.351Z,99085.91
2023-05-04T06:55:44.461Z,99081.44
2023-05-04T07:00:46.323Z,99088.50
2023-05-04T07:05:50.574Z,99078.78
2023-05-04T07:10:52.379Z,99078.50
2023-05-04T07:15:54.302Z,99082.41
2023-05-04T07:21:01.744Z,99077.53
2023-05-04T07:26:13.457Z,99069.41
2023-05-04T07:31:16.041Z,99065.16
2023-05-04T07:36:18.190Z,99070.19
2023-05-04T07:41:22.999Z,99058.28
2023-05-04T07:46:24.890Z,99047.19
2023-05-04T07:51:26.728Z,99052.56
2023-05-04T07:56:28.776Z,99042.44
2023-05-04T08:01:30.641Z,99046.81
2023-05-04T08:06:34.767Z,99048.44
2023-05-04T08:11:37.946Z,99053.25
2023-05-04T08:16:40.543Z,99053.34
2023-05-04T08:21:42.445Z,99043.84
2023-05-04T08:26:49.604Z,99043.94
2023-05-04T08:31:59.704Z,99030.47
2023-05-04T08:37:02.642Z,99024.16
2023-05-04T08:42:04.675Z,99029.91
2023-05-04T08:47:06.430Z,99026.59
2023-05-04T08:52:09.451Z,99029.13
2023-05-04T08:57:12.574Z,99023.19
2023-05-04T09:02:14.584Z,99031.97
2023-05-04T09:07:18.110Z,99026.66
2023-05-04T09:12:23.049Z,99019.47
2023-05-04T09:17:29.461Z,99019.47
2023-05-04T09:22:31.543Z,99017.56
2023-05-04T09:27:33.446Z,99014.31
2023-05-04T09:32:50.833Z,99016.75
2023-05-04T09:37:52.758Z,99005.28
2023-05-04T09:42:58.155Z,99008.53
2023-05-04T09:48:00.262Z,99000.41
2023-05-04T09:53:03.884Z,99004.47
2023-05-04T09:58:06.505Z,99003.25
2023-05-04T10:03:08.789Z,98996.47
2023-05-04T10:08:12.637Z,98983.44
2023-05-04T10:13:14.545Z,98985.06
2023-05-04T10:18:34.075Z,98980.06
2023-05-04T10:23:58.230Z,98968.00
2023-05-04T10:29:13.776Z,98966.50
2023-05-04T10:34:30.195Z,98958.72
2023-05-04T10:39:35.586Z,98953.94
2023-05-04T10:44:55.436Z,98944.88
2023-05-04T10:50:06.465Z,98935.44
2023-05-04T10:55:09.144Z,98933.69
2023-05-04T11:00:12.140Z,98924.22
2023-05-04T11:05:18.482Z,98922.06
2023-05-04T11:10:22.679Z,98911.03
2023-05-04T11:15:24.644Z,98906.63
2023-05-04T11:20:27.678Z,98903.22
2023-05-04T11:25:30.820Z,98885.66
2023-05-04T11:30:34.468Z,98878.41
2023-05-04T11:35:36.437Z,98885.13
2023-05-04T11:40:41.409Z,98880.06
2023-05-04T11:45:44.507Z,98880.09
2023-05-04T11:50:47.865Z,98869.59
2023-05-04T11:55:50.563Z,98862.34
2023-05-04T12:00:56.880Z,98863.16
2023-05-04T12:06:00.006Z,98846.59
2023-05-04T12:11:25.577Z,98846.63
2023-05-04T12:16:27.714Z,98848.03
2023-05-04T12:21:29.816Z,98850.06
2023-05-04T12:26:31.774Z,98830.47
2023-05-04T12:31:33.888Z,98833.72
2023-05-04T12:36:35.708Z,98830.06
2023-05-04T12:41:37.723Z,98820.38
2023-05-04T12:46:39.753Z,98820.59
2023-05-04T12:51:41.776Z,98822.66
2023-05-04T12:56:43.871Z,98810.75
2023-05-04T13:01:46.175Z,98809.72
2023-05-04T13:06:48.694Z,98811.16
2023-05-04T13:11:50.448Z,98792.34
2023-05-04T13:16:52.818Z,98792.16
2023-05-04T13:21:54.713Z,98788.09
2023-05-04T13:26:56.704Z,98782.84
2023-05-04T13:31:59.674Z,98784.47
2023-05-04T13:37:01.600Z,98783.66
2023-05-04T13:42:04.061Z,98774.56
2023-05-04T13:47:06.247Z,98767.47
2023-05-04T13:52:08.807Z,98759.78
2023-05-04T13:57:10.738Z,98754.50
2023-05-04T14:02:12.716Z,98744.78
2023-05-04T14:07:14.614Z,98736.28
2023-05-04T14:12:18.586Z,98735.47
2023-05-04T14:17:20.654Z,98734.25
2023-05-04T14:22:22.594Z,98727.41
2023-05-04T14:27:24.579Z,98718.09
2023-05-04T14:32:26.542Z,98716.09
2023-05-04T14:37:28.435Z,98710.63
2023-05-04T14:42:30.236Z,98707.78
2023-05-04T14:47:33.579Z,98704.34
2023-05-04T14:52:35.613Z,98698.88
2023-05-04T14:57:37.587Z,98692.19
2023-05-04T15:02:39.543Z,98683.69
2023-05-04T15:07:41.631Z,98683.91
2023-05-04T15:12:43.573Z,98682.50
2023-05-04T15:17:45.599Z,98681.47
2023-05-04T15:22:49.174Z,98677.19
2023-05-04T15:27:50.999Z,98668.28
2023-05-04T15:32:53.072Z,98673.56
2023-05-04T15:37:55.340Z,98660.25
2023-05-04T15:42:57.394Z,98656.19
2023-05-04T15:48:00.373Z,98649.53
2023-05-04T15:53:02.354Z,98649.34
2023-05-04T15:58:04.354Z,98637.03
2023-05-04T16:03:06.234Z,98640.28
2023-05-04T16:08:08.183Z,98634.81
2023-05-04T16:13:12.013Z,98633.63
2023-05-04T16:18:14.128Z,98623.50
2023-05-04T16:23:17.514Z,98623.13
2023-05-04T16:28:20.571Z,98618.66
2023-05-04T16:33:22.571Z,98618.66
2023-05-04T16:38:24.382Z,98620.88
2023-05-04T16:43:26.556Z,98619.47
2023-05-04T16:48:28.402Z,98619.47
2023-05-04T16:53:30.489Z,98619.69
2023-05-04T16:58:32.351Z,98609.38
2023-05-04T17:03:34.320Z,98612.22
2023-05-04T17:08:36.486Z,98606.56
2023-05-04T17:13:38.385Z,98605.75
2023-05-04T17:18:40.493Z,98608.16
2023-05-04T17:23:43.477Z,98606.16
2023-05-04T17:28:48.426Z,98610.38
2023-05-04T17:33:50.259Z,98608.34
2023-05-04T17:38:52.404Z,98610.19
2023-05-04T17:43:55.670Z,98611.19
2023-05-04T17:48:57.413Z,98616.63
2023-05-04T17:53:59.213Z,98618.03
2023-05-04T17:59:01.092Z,98621.47
2023-05-04T18:04:05.720Z,98630.91
2023-05-04T18:09:07.607Z,98640.97
2023-05-04T18:14:09.406Z,98645.22
2023-05-04T18:19:11.146Z,98648.41
2023-05-04T18:24:12.974Z,98646.16
2023-05-04T18:29:18.889Z,98646.72
2023-05-04T18:34:22.817Z,98637.81
2023-05-04T18:39:24.780Z,98640.97
2023-05-04T18:44:26.607Z,98633.66
2023-05-04T18:49:31.369Z,98640.06
2023-05-04T18:54:33.545Z,98652.50
2023-05-04T18:59:35.511Z,98643.34
2023-05-04T19:04:38.310Z,98648.28
2023-05-04T19:09:40.190Z,98647.00
2023-05-04T19:14:44.058Z,98658.00
2023-05-04T19:19:45.920Z,98651.66
2023-05-04T19:24:51.742Z,98650.72
2023-05-04T19:29:56.156Z,98653.03
2023-05-04T19:34:58.219Z,98655.78
2023-05-04T19:39:59.956Z,98652.66
2023-05-04T19:45:01.829Z,98645.09
2023-05-04T19:50:03.904Z,98645.06
2023-05-04T19:55:06.998Z,98647.75
2023-05-04T20:00:12.858Z,98637.66
2023-05-04T20:05:14.816Z,98627.94
2023-05-04T20:10:16.667Z,98633.91
2023-05-04T20:15:18.460Z,98629.41
2023-05-04T20:20:22.025Z,98627.78
2023-05-04T20:25:23.957Z,98627.78
2023-05-04T20:30:28.278Z,98623.28
2023-05-04T20:35:30.168Z,98624.22
2023-05-04T20:40:32.212Z,98627.38
2023-05-04T20:45:34.682Z,98621.88
2023-05-04T20:50:36.702Z,98629.28
2023-05-04T20:55:40.572Z,98628.47
2023-05-04T21:00:42.454Z,98627.47
2023-05-04T21:05:44.300Z,98626.28
2023-05-04T21:10:48.993Z,98620.25
2023-05-04T21:15:51.520Z,98622.06
2023-05-04T21:20:54.246Z,98627.47
2023-05-04T21:26:03.582Z,98617.38
2023-05-04T21:31:09.256Z,98606.47
2023-05-04T21:36:14.939Z,98599.19
2023-05-04T21:41:17.059Z,98609.19
2023-05-04T21:46:18.921Z,98601.09
2023-05-04T21:51:21.172Z,98595.13
2023-05-04T21:56:22.949Z,98591.00
2023-05-04T22:01:24.839Z,98585.50
2023-05-04T22:06:27.409Z,98595.69
2023-05-04T22:11:29.757Z,98597.03
2023-05-04T22:16:31.743Z,98597.56
2023-05-04T22:21:33.663Z,98595.63
2023-05-04T22:26:35.680Z,98596.78
2023-05-04T22:31:37.536Z,98592.91
2023-05-04T22:36:39.624Z,98591.38
2023-05-04T22:41:41.494Z,98593.06
2023-05-04T22:46:43.224Z,98602.25
2023-05-04T22:51:45.127Z,98601.97
2023-05-04T22:56:46.834Z,98610.78
2023-05-04T23:01:50.368Z,98610.31
2023-05-04T23:06:53.352Z,98615.06
2023-05-04T23:11:55.103Z,98610.22
2023-05-04T23:16:56.851Z,98596.69
2023-05-04T23:21:58.819Z,98593.63
2023-05-04T23:27:00.552Z,98585.53
2023-05-04T23:32:02.481Z,98585.06
2023-05-04T23:37:04.516Z,98590.78
2023-05-04T23:42:06.370Z,98585.28
2023-05-04T23:47:08.111Z,98596.06
2023-05-04T23:52:09.813Z,98587.97
2023-05-04T23:57:11.719Z,98583.44
